sensor_id;sensor_type;location;lat;lon;timestamp;P1;durP1;ratioP1;P2;durP2;ratioP2
705;SDS011;21234;48.690;9.016;2023-04-28T00:02:19;3.80;;;3.10;;
705;SDS011;21234;48.690;9.016;2023-04-28T00:04:47;4.97;;;3.40;;
705;SDS011;21234;48.690;9.016;2023-04-28T00:07:14;2.63;;;2.43;;
705;SDS011;21234;48.690;9.016;2023-04-28T00:09:41;2.50;;;2.30;;
705;SDS011;21234;48.690;9.016;2023-04-28T00:12:07;3.43;;;3.13;;
705;SDS011;21234;48.690;9.016;2023-04-28T00:14:34;3.70;;;2.57;;
705;SDS011;21234;48.690;9.016;2023-04-28T00:17:01;4.13;;;2.93;;
705;SDS011;21234;48.690;9.016;2023-04-28T00:19:27;4.30;;;3.23;;
705;SDS011;21234;48.690;9.016;2023-04-28T00:21:55;3.23;;;2.93;;
705;SDS011;21234;48.690;9.016;2023-04-28T00:24:22;5.10;;;4.20;;
705;SDS011;21234;48.690;9.016;2023-04-28T00:26:49;4.90;;;3.10;;
705;SDS011;21234;48.690;9.016;2023-04-28T00:29:16;3.83;;;3.53;;
705;SDS011;21234;48.690;9.016;2023-04-28T00:31:43;6.03;;;3.17;;
705;SDS011;21234;48.690;9.016;2023-04-28T00:34:10;5.93;;;3.20;;
705;SDS011;21234;48.690;9.016;2023-04-28T00:36:38;7.37;;;3.60;;
705;SDS011;21234;48.690;9.016;2023-04-28T00:39:06;4.10;;;3.07;;
705;SDS011;21234;48.690;9.016;2023-04-28T00:41:34;3.80;;;3.40;;
705;SDS011;21234;48.690;9.016;2023-04-28T00:44:00;3.50;;;2.97;;
705;SDS011;21234;48.690;9.016;2023-04-28T00:46:28;3.23;;;2.93;;
705;SDS011;21234;48.690;9.016;2023-04-28T00:48:56;6.00;;;4.07;;
705;SDS011;21234;48.690;9.016;2023-04-28T00:51:23;6.07;;;3.37;;
705;SDS011;21234;48.690;9.016;2023-04-28T00:53:51;3.77;;;2.77;;
705;SDS011;21234;48.690;9.016;2023-04-28T00:56:19;3.50;;;3.20;;
705;SDS011;21234;48.690;9.016;2023-04-28T00:58:46;4.40;;;2.67;;
705;SDS011;21234;48.690;9.016;2023-04-28T01:01:13;4.10;;;2.43;;
705;SDS011;21234;48.690;9.016;2023-04-28T01:03:40;3.93;;;3.00;;
705;SDS011;21234;48.690;9.016;2023-04-28T01:06:07;2.83;;;2.63;;
705;SDS011;21234;48.690;9.016;2023-04-28T01:08:35;2.73;;;2.53;;
705;SDS011;21234;48.690;9.016;2023-04-28T01:11:03;2.93;;;2.63;;
705;SDS011;21234;48.690;9.016;2023-04-28T01:13:32;2.90;;;2.57;;
705;SDS011;21234;48.690;9.016;2023-04-28T01:15:59;3.80;;;3.10;;
705;SDS011;21234;48.690;9.016;2023-04-28T01:18:26;2.73;;;2.40;;
705;SDS011;21234;48.690;9.016;2023-04-28T01:20:53;3.30;;;3.00;;
705;SDS011;21234;48.690;9.016;2023-04-28T01:23:20;4.73;;;2.80;;
705;SDS011;21234;48.690;9.016;2023-04-28T01:25:48;3.50;;;2.57;;
705;SDS011;21234;48.690;9.016;2023-04-28T01:28:15;2.70;;;2.50;;
705;SDS011;21234;48.690;9.016;2023-04-28T01:30:41;8.80;;;3.10;;
705;SDS011;21234;48.690;9.016;2023-04-28T01:33:08;4.37;;;2.60;;
705;SDS011;21234;48.690;9.016;2023-04-28T01:35:35;2.70;;;2.50;;
705;SDS011;21234;48.690;9.016;2023-04-28T01:38:01;2.50;;;2.30;;
705;SDS011;21234;48.690;9.016;2023-04-28T01:40:28;2.90;;;2.50;;
705;SDS011;21234;48.690;9.016;2023-04-28T01:42:56;2.73;;;2.50;;
705;SDS011;21234;48.690;9.016;2023-04-28T01:45:23;3.53;;;2.63;;
705;SDS011;21234;48.690;9.016;2023-04-28T01:47:49;5.90;;;2.80;;
705;SDS011;21234;48.690;9.016;2023-04-28T01:50:16;2.80;;;2.60;;
705;SDS011;21234;48.690;9.016;2023-04-28T01:52:43;5.27;;;3.07;;
705;SDS011;21234;48.690;9.016;2023-04-28T01:55:09;3.40;;;2.87;;
705;SDS011;21234;48.690;9.016;2023-04-28T01:57:36;4.20;;;2.70;;
705;SDS011;21234;48.690;9.016;2023-04-28T02:00:05;2.87;;;2.67;;
705;SDS011;21234;48.690;9.016;2023-04-28T02:02:33;2.70;;;1.90;;
705;SDS011;21234;48.690;9.016;2023-04-28T02:05:00;3.03;;;2.67;;
705;SDS011;21234;48.690;9.016;2023-04-28T02:07:27;5.57;;;2.77;;
705;SDS011;21234;48.690;9.016;2023-04-28T02:09:54;4.70;;;2.73;;
705;SDS011;21234;48.690;9.016;2023-04-28T02:12:21;2.30;;;2.10;;
705;SDS011;21234;48.690;9.016;2023-04-28T02:14:47;2.70;;;2.50;;
705;SDS011;21234;48.690;9.016;2023-04-28T02:17:16;2.73;;;2.30;;
705;SDS011;21234;48.690;9.016;2023-04-28T02:19:43;2.67;;;2.30;;
705;SDS011;21234;48.690;9.016;2023-04-28T02:22:10;2.80;;;2.50;;
705;SDS011;21234;48.690;9.016;2023-04-28T02:24:36;4.70;;;2.97;;
705;SDS011;21234;48.690;9.016;2023-04-28T02:27:03;2.20;;;2.00;;
705;SDS011;21234;48.690;9.016;2023-04-28T02:29:30;4.47;;;2.67;;
705;SDS011;21234;48.690;9.016;2023-04-28T02:31:57;7.67;;;2.33;;
705;SDS011;21234;48.690;9.016;2023-04-28T02:34:25;4.93;;;2.60;;
705;SDS011;21234;48.690;9.016;2023-04-28T02:36:51;7.63;;;3.73;;
705;SDS011;21234;48.690;9.016;2023-04-28T02:39:18;3.20;;;2.60;;
705;SDS011;21234;48.690;9.016;2023-04-28T02:41:46;3.53;;;2.60;;
705;SDS011;21234;48.690;9.016;2023-04-28T02:44:12;2.60;;;2.30;;
705;SDS011;21234;48.690;9.016;2023-04-28T02:46:39;2.77;;;2.20;;
705;SDS011;21234;48.690;9.016;2023-04-28T02:49:06;3.30;;;3.00;;
705;SDS011;21234;48.690;9.016;2023-04-28T02:51:34;3.47;;;2.70;;
705;SDS011;21234;48.690;9.016;2023-04-28T02:54:02;2.70;;;2.50;;
705;SDS011;21234;48.690;9.016;2023-04-28T02:56:29;3.30;;;2.37;;
705;SDS011;21234;48.690;9.016;2023-04-28T02:58:55;6.50;;;2.60;;
705;SDS011;21234;48.690;9.016;2023-04-28T03:01:22;3.07;;;2.77;;
705;SDS011;21234;48.690;9.016;2023-04-28T03:03:49;9.13;;;2.80;;
705;SDS011;21234;48.690;9.016;2023-04-28T03:06:16;3.17;;;2.70;;
705;SDS011;21234;48.690;9.016;2023-04-28T03:08:44;3.43;;;2.70;;
705;SDS011;21234;48.690;9.016;2023-04-28T03:11:11;2.87;;;2.10;;
705;SDS011;21234;48.690;9.016;2023-04-28T03:13:37;2.90;;;2.60;;
705;SDS011;21234;48.690;9.016;2023-04-28T03:16:04;2.90;;;2.70;;
705;SDS011;21234;48.690;9.016;2023-04-28T03:18:32;3.83;;;2.73;;
705;SDS011;21234;48.690;9.016;2023-04-28T03:20:58;4.37;;;3.27;;
705;SDS011;21234;48.690;9.016;2023-04-28T03:23:25;2.77;;;2.50;;
705;SDS011;21234;48.690;9.016;2023-04-28T03:25:53;3.43;;;3.10;;
705;SDS011;21234;48.690;9.016;2023-04-28T03:28:20;2.93;;;2.47;;
705;SDS011;21234;48.690;9.016;2023-04-28T03:30:47;4.37;;;3.30;;
705;SDS011;21234;48.690;9.016;2023-04-28T03:33:13;5.53;;;3.07;;
705;SDS011;21234;48.690;9.016;2023-04-28T03:35:40;4.93;;;3.30;;
705;SDS011;21234;48.690;9.016;2023-04-28T03:38:07;3.73;;;3.43;;
705;SDS011;21234;48.690;9.016;2023-04-28T03:40:34;3.30;;;3.00;;
705;SDS011;21234;48.690;9.016;2023-04-28T03:43:02;4.17;;;3.50;;
705;SDS011;21234;48.690;9.016;2023-04-28T03:45:29;4.93;;;4.00;;
705;SDS011;21234;48.690;9.016;2023-04-28T03:47:55;4.10;;;3.70;;
705;SDS011;21234;48.690;9.016;2023-04-28T03:50:22;3.70;;;3.27;;
705;SDS011;21234;48.690;9.016;2023-04-28T03:52:49;5.97;;;3.10;;
705;SDS011;21234;48.690;9.016;2023-04-28T03:55:16;3.90;;;3.53;;
705;SDS011;21234;48.690;9.016;2023-04-28T03:57:42;2.70;;;2.50;;
705;SDS011;21234;48.690;9.016;2023-04-28T04:00:11;3.17;;;2.87;;
705;SDS011;21234;48.690;9.016;2023-04-28T04:02:38;4.30;;;2.80;;
705;SDS011;21234;48.690;9.016;2023-04-28T04:05:05;2.80;;;2.47;;
705;SDS011;21234;48.690;9.016;2023-04-28T04:07:32;3.10;;;2.80;;
705;SDS011;21234;48.690;9.016;2023-04-28T04:09:59;3.07;;;2.80;;
705;SDS011;21234;48.690;9.016;2023-04-28T04:12:25;3.57;;;3.27;;
705;SDS011;21234;48.690;9.016;2023-04-28T04:14:52;3.13;;;2.83;;
705;SDS011;21234;48.690;9.016;2023-04-28T04:17:20;7.57;;;3.30;;
705;SDS011;21234;48.690;9.016;2023-04-28T04:19:47;3.93;;;3.23;;
705;SDS011;21234;48.690;9.016;2023-04-28T04:22:13;3.30;;;2.97;;
705;SDS011;21234;48.690;9.016;2023-04-28T04:24:40;3.10;;;2.80;;
705;SDS011;21234;48.690;9.016;2023-04-28T04:27:07;4.17;;;2.90;;
705;SDS011;21234;48.690;9.016;2023-04-28T04:29:34;3.97;;;2.60;;
705;SDS011;21234;48.690;9.016;2023-04-28T04:32:00;3.87;;;2.67;;
705;SDS011;21234;48.690;9.016;2023-04-28T04:34:28;3.97;;;3.23;;
705;SDS011;21234;48.690;9.016;2023-04-28T04:36:55;3.73;;;2.70;;
705;SDS011;21234;48.690;9.016;2023-04-28T04:39:22;3.03;;;2.73;;
705;SDS011;21234;48.690;9.016;2023-04-28T04:41:48;2.80;;;2.60;;
705;SDS011;21234;48.690;9.016;2023-04-28T04:44:15;8.23;;;2.80;;
705;SDS011;21234;48.690;9.016;2023-04-28T04:46:42;3.60;;;2.93;;
705;SDS011;21234;48.690;9.016;2023-04-28T04:49:08;4.27;;;3.03;;
705;SDS011;21234;48.690;9.016;2023-04-28T04:51:36;3.80;;;3.03;;
705;SDS011;21234;48.690;9.016;2023-04-28T04:54:03;4.20;;;3.20;;
705;SDS011;21234;48.690;9.016;2023-04-28T04:56:30;4.97;;;4.53;;
705;SDS011;21234;48.690;9.016;2023-04-28T04:58:57;4.30;;;3.80;;
705;SDS011;21234;48.690;9.016;2023-04-28T05:01:23;4.00;;;3.20;;
705;SDS011;21234;48.690;9.016;2023-04-28T05:03:50;3.80;;;3.47;;
705;SDS011;21234;48.690;9.016;2023-04-28T05:06:17;5.27;;;3.27;;
705;SDS011;21234;48.690;9.016;2023-04-28T05:08:46;3.20;;;2.90;;
705;SDS011;21234;48.690;9.016;2023-04-28T05:11:12;3.50;;;3.20;;
705;SDS011;21234;48.690;9.016;2023-04-28T05:13:39;6.37;;;4.03;;
705;SDS011;21234;48.690;9.016;2023-04-28T05:16:06;4.30;;;3.50;;
705;SDS011;21234;48.690;9.016;2023-04-28T05:18:33;4.37;;;3.50;;
705;SDS011;21234;48.690;9.016;2023-04-28T05:20:59;5.00;;;3.90;;
705;SDS011;21234;48.690;9.016;2023-04-28T05:23:26;6.80;;;3.73;;
705;SDS011;21234;48.690;9.016;2023-04-28T05:25:54;4.30;;;3.90;;
705;SDS011;21234;48.690;9.016;2023-04-28T05:28:21;6.23;;;3.80;;
705;SDS011;21234;48.690;9.016;2023-04-28T05:30:47;4.57;;;3.83;;
705;SDS011;21234;48.690;9.016;2023-04-28T05:33:14;4.43;;;4.00;;
705;SDS011;21234;48.690;9.016;2023-04-28T05:35:41;4.67;;;3.67;;
705;SDS011;21234;48.690;9.016;2023-04-28T05:38:08;5.07;;;3.63;;
705;SDS011;21234;48.690;9.016;2023-04-28T05:40:34;3.33;;;3.03;;
705;SDS011;21234;48.690;9.016;2023-04-28T05:43:02;4.53;;;4.10;;
705;SDS011;21234;48.690;9.016;2023-04-28T05:45:29;7.70;;;4.40;;
705;SDS011;21234;48.690;9.016;2023-04-28T05:47:56;4.40;;;3.90;;
705;SDS011;21234;48.690;9.016;2023-04-28T05:50:23;5.63;;;3.83;;
705;SDS011;21234;48.690;9.016;2023-04-28T05:52:49;4.47;;;4.07;;
705;SDS011;21234;48.690;9.016;2023-04-28T05:55:16;3.77;;;3.40;;
705;SDS011;21234;48.690;9.016;2023-04-28T05:57:43;4.50;;;4.10;;
705;SDS011;21234;48.690;9.016;2023-04-28T06:00:12;3.60;;;3.27;;
705;SDS011;21234;48.690;9.016;2023-04-28T06:02:40;5.33;;;4.70;;
705;SDS011;21234;48.690;9.016;2023-04-28T06:05:08;6.00;;;4.00;;
705;SDS011;21234;48.690;9.016;2023-04-28T06:07:35;3.63;;;3.10;;
705;SDS011;21234;48.690;9.016;2023-04-28T06:10:02;4.00;;;3.60;;
705;SDS011;21234;48.690;9.016;2023-04-28T06:12:29;3.97;;;3.27;;
705;SDS011;21234;48.690;9.016;2023-04-28T06:14:56;5.60;;;3.80;;
705;SDS011;21234;48.690;9.016;2023-04-28T06:17:24;5.20;;;4.70;;
705;SDS011;21234;48.690;9.016;2023-04-28T06:19:51;4.20;;;3.23;;
705;SDS011;21234;48.690;9.016;2023-04-28T06:22:18;3.83;;;3.50;;
705;SDS011;21234;48.690;9.016;2023-04-28T06:24:45;3.70;;;2.90;;
705;SDS011;21234;48.690;9.016;2023-04-28T06:27:12;4.43;;;4.00;;
705;SDS011;21234;48.690;9.016;2023-04-28T06:29:38;6.87;;;4.10;;
705;SDS011;21234;48.690;9.016;2023-04-28T06:32:05;3.47;;;3.27;;
705;SDS011;21234;48.690;9.016;2023-04-28T06:34:33;4.57;;;3.57;;
705;SDS011;21234;48.690;9.016;2023-04-28T06:37:00;3.80;;;3.50;;
705;SDS011;21234;48.690;9.016;2023-04-28T06:39:27;3.50;;;3.20;;
705;SDS011;21234;48.690;9.016;2023-04-28T06:41:53;4.97;;;3.13;;
705;SDS011;21234;48.690;9.016;2023-04-28T06:44:20;3.30;;;3.00;;
705;SDS011;21234;48.690;9.016;2023-04-28T06:46:47;3.87;;;3.53;;
705;SDS011;21234;48.690;9.016;2023-04-28T06:49:13;3.20;;;2.90;;
705;SDS011;21234;48.690;9.016;2023-04-28T06:51:41;3.13;;;2.83;;
705;SDS011;21234;48.690;9.016;2023-04-28T06:54:08;3.87;;;3.23;;
705;SDS011;21234;48.690;9.016;2023-04-28T06:56:35;4.17;;;3.37;;
705;SDS011;21234;48.690;9.016;2023-04-28T06:59:02;5.57;;;3.77;;
705;SDS011;21234;48.690;9.016;2023-04-28T07:01:28;5.57;;;2.70;;
705;SDS011;21234;48.690;9.016;2023-04-28T07:03:55;3.50;;;3.20;;
705;SDS011;21234;48.690;9.016;2023-04-28T07:06:22;4.20;;;3.20;;
705;SDS011;21234;48.690;9.016;2023-04-28T07:08:50;3.43;;;3.07;;
705;SDS011;21234;48.690;9.016;2023-04-28T07:11:16;3.20;;;2.90;;
705;SDS011;21234;48.690;9.016;2023-04-28T07:13:43;4.33;;;3.57;;
705;SDS011;21234;48.690;9.016;2023-04-28T07:16:13;4.73;;;3.53;;
705;SDS011;21234;48.690;9.016;2023-04-28T07:18:39;7.30;;;3.30;;
705;SDS011;21234;48.690;9.016;2023-04-28T07:21:06;4.60;;;4.13;;
705;SDS011;21234;48.690;9.016;2023-04-28T07:23:33;4.27;;;3.23;;
705;SDS011;21234;48.690;9.016;2023-04-28T07:26:01;3.13;;;2.83;;
705;SDS011;21234;48.690;9.016;2023-04-28T07:28:28;4.20;;;2.77;;
705;SDS011;21234;48.690;9.016;2023-04-28T07:30:55;4.10;;;3.53;;
705;SDS011;21234;48.690;9.016;2023-04-28T07:33:21;4.33;;;3.50;;
705;SDS011;21234;48.690;9.016;2023-04-28T07:35:48;4.53;;;2.97;;
705;SDS011;21234;48.690;9.016;2023-04-28T07:38:16;3.57;;;3.27;;
705;SDS011;21234;48.690;9.016;2023-04-28T07:40:44;4.17;;;3.70;;
705;SDS011;21234;48.690;9.016;2023-04-28T07:43:13;4.53;;;3.47;;
705;SDS011;21234;48.690;9.016;2023-04-28T07:45:39;2.77;;;2.57;;
705;SDS011;21234;48.690;9.016;2023-04-28T07:48:09;3.63;;;3.33;;
705;SDS011;21234;48.690;9.016;2023-04-28T07:50:36;3.97;;;2.97;;
705;SDS011;21234;48.690;9.016;2023-04-28T07:53:02;5.30;;;3.30;;
705;SDS011;21234;48.690;9.016;2023-04-28T07:55:29;2.87;;;2.57;;
705;SDS011;21234;48.690;9.016;2023-04-28T07:57:56;3.17;;;2.70;;
705;SDS011;21234;48.690;9.016;2023-04-28T08:00:24;3.57;;;3.27;;
705;SDS011;21234;48.690;9.016;2023-04-28T08:02:51;3.83;;;3.43;;
705;SDS011;21234;48.690;9.016;2023-04-28T08:05:18;3.60;;;3.13;;
705;SDS011;21234;48.690;9.016;2023-04-28T08:07:45;5.07;;;4.67;;
705;SDS011;21234;48.690;9.016;2023-04-28T08:10:11;4.30;;;3.60;;
705;SDS011;21234;48.690;9.016;2023-04-28T08:12:38;4.40;;;4.00;;
705;SDS011;21234;48.690;9.016;2023-04-28T08:15:06;4.37;;;3.70;;
705;SDS011;21234;48.690;9.016;2023-04-28T08:17:35;5.47;;;3.73;;
705;SDS011;21234;48.690;9.016;2023-04-28T08:20:02;4.93;;;4.30;;
705;SDS011;21234;48.690;9.016;2023-04-28T08:22:29;5.80;;;4.20;;
705;SDS011;21234;48.690;9.016;2023-04-28T08:24:56;7.60;;;4.43;;
705;SDS011;21234;48.690;9.016;2023-04-28T08:27:23;3.80;;;3.50;;
705;SDS011;21234;48.690;9.016;2023-04-28T08:29:50;7.17;;;4.63;;
705;SDS011;21234;48.690;9.016;2023-04-28T08:32:17;5.93;;;4.87;;
705;SDS011;21234;48.690;9.016;2023-04-28T08:34:45;3.97;;;3.60;;
705;SDS011;21234;48.690;9.016;2023-04-28T08:37:11;4.83;;;4.23;;
705;SDS011;21234;48.690;9.016;2023-04-28T08:39:38;5.17;;;4.60;;
705;SDS011;21234;48.690;9.016;2023-04-28T08:42:06;4.37;;;3.53;;
705;SDS011;21234;48.690;9.016;2023-04-28T08:44:35;4.90;;;4.27;;
705;SDS011;21234;48.690;9.016;2023-04-28T08:47:03;4.20;;;3.80;;
705;SDS011;21234;48.690;9.016;2023-04-28T08:49:37;4.50;;;4.10;;
705;SDS011;21234;48.690;9.016;2023-04-28T08:52:08;3.40;;;3.10;;
705;SDS011;21234;48.690;9.016;2023-04-28T08:54:36;4.30;;;3.90;;
705;SDS011;21234;48.690;9.016;2023-04-28T08:57:06;4.13;;;3.73;;
705;SDS011;21234;48.690;9.016;2023-04-28T08:59:34;3.73;;;3.10;;
705;SDS011;21234;48.690;9.016;2023-04-28T09:02:04;4.60;;;2.33;;
705;SDS011;21234;48.690;9.016;2023-04-28T09:04:31;4.60;;;3.03;;
705;SDS011;21234;48.690;9.016;2023-04-28T09:06:58;3.37;;;2.90;;
705;SDS011;21234;48.690;9.016;2023-04-28T09:09:26;3.60;;;2.60;;
705;SDS011;21234;48.690;9.016;2023-04-28T09:11:55;3.40;;;2.20;;
705;SDS011;21234;48.690;9.016;2023-04-28T09:14:22;2.40;;;2.20;;
705;SDS011;21234;48.690;9.016;2023-04-28T09:16:49;4.03;;;2.37;;
705;SDS011;21234;48.690;9.016;2023-04-28T09:19:17;3.57;;;3.07;;
705;SDS011;21234;48.690;9.016;2023-04-28T09:21:47;2.93;;;2.63;;
705;SDS011;21234;48.690;9.016;2023-04-28T09:24:29;2.70;;;2.50;;
705;SDS011;21234;48.690;9.016;2023-04-28T09:26:57;3.23;;;2.50;;
705;SDS011;21234;48.690;9.016;2023-04-28T09:29:24;3.13;;;2.83;;
705;SDS011;21234;48.690;9.016;2023-04-28T09:31:51;5.27;;;3.27;;
705;SDS011;21234;48.690;9.016;2023-04-28T09:34:18;5.23;;;3.30;;
705;SDS011;21234;48.690;9.016;2023-04-28T09:36:45;5.63;;;3.33;;
705;SDS011;21234;48.690;9.016;2023-04-28T09:39:11;4.87;;;4.03;;
705;SDS011;21234;48.690;9.016;2023-04-28T09:41:40;5.03;;;3.57;;
705;SDS011;21234;48.690;9.016;2023-04-28T09:44:11;4.60;;;4.20;;
705;SDS011;21234;48.690;9.016;2023-04-28T09:46:39;6.17;;;4.30;;
705;SDS011;21234;48.690;9.016;2023-04-28T09:49:06;4.63;;;2.83;;
705;SDS011;21234;48.690;9.016;2023-04-28T09:51:33;4.80;;;3.43;;
705;SDS011;21234;48.690;9.016;2023-04-28T09:54:00;3.30;;;3.00;;
705;SDS011;21234;48.690;9.016;2023-04-28T09:56:28;3.70;;;2.60;;
705;SDS011;21234;48.690;9.016;2023-04-28T09:58:58;2.00;;;1.80;;
705;SDS011;21234;48.690;9.016;2023-04-28T10:01:26;2.10;;;2.00;;
705;SDS011;21234;48.690;9.016;2023-04-28T10:03:53;2.30;;;2.10;;
705;SDS011;21234;48.690;9.016;2023-04-28T10:06:23;2.07;;;1.80;;
705;SDS011;21234;48.690;9.016;2023-04-28T10:08:52;1.50;;;1.37;;
705;SDS011;21234;48.690;9.016;2023-04-28T10:11:18;3.13;;;1.83;;
705;SDS011;21234;48.690;9.016;2023-04-28T10:13:46;1.80;;;0.97;;
705;SDS011;21234;48.690;9.016;2023-04-28T10:16:16;1.73;;;0.60;;
705;SDS011;21234;48.690;9.016;2023-04-28T10:18:43;1.60;;;0.77;;
705;SDS011;21234;48.690;9.016;2023-04-28T10:21:10;3.27;;;0.90;;
705;SDS011;21234;48.690;9.016;2023-04-28T10:26:57;1.63;;;0.70;;
705;SDS011;21234;48.690;9.016;2023-04-28T10:29:29;1.90;;;0.70;;
705;SDS011;21234;48.690;9.016;2023-04-28T10:32:20;1.33;;;0.80;;
705;SDS011;21234;48.690;9.016;2023-04-28T10:34:50;0.60;;;0.50;;
705;SDS011;21234;48.690;9.016;2023-04-28T10:37:17;0.87;;;0.70;;
705;SDS011;21234;48.690;9.016;2023-04-28T10:42:54;2.13;;;0.70;;
705;SDS011;21234;48.690;9.016;2023-04-28T10:51:21;2.00;;;1.07;;
705;SDS011;21234;48.690;9.016;2023-04-28T10:56:35;1.23;;;0.80;;
705;SDS011;21234;48.690;9.016;2023-04-28T10:59:02;0.73;;;0.70;;
705;SDS011;21234;48.690;9.016;2023-04-28T11:01:52;1.30;;;0.87;;
705;SDS011;21234;48.690;9.016;2023-04-28T11:04:20;0.70;;;0.60;;
705;SDS011;21234;48.690;9.016;2023-04-28T11:07:08;1.37;;;0.97;;
705;SDS011;21234;48.690;9.016;2023-04-28T11:09:46;1.17;;;0.77;;
705;SDS011;21234;48.690;9.016;2023-04-28T11:12:14;0.93;;;0.60;;
705;SDS011;21234;48.690;9.016;2023-04-28T11:14:41;0.70;;;0.50;;
705;SDS011;21234;48.690;9.016;2023-04-28T11:17:07;0.80;;;0.50;;
705;SDS011;21234;48.690;9.016;2023-04-28T11:19:39;1.00;;;0.50;;
705;SDS011;21234;48.690;9.016;2023-04-28T11:22:12;0.50;;;0.50;;
705;SDS011;21234;48.690;9.016;2023-04-28T11:24:40;0.77;;;0.60;;
705;SDS011;21234;48.690;9.016;2023-04-28T11:27:07;0.50;;;0.40;;
705;SDS011;21234;48.690;9.016;2023-04-28T11:29:34;2.03;;;0.30;;
705;SDS011;21234;48.690;9.016;2023-04-28T11:32:02;0.50;;;0.30;;
705;SDS011;21234;48.690;9.016;2023-04-28T11:34:29;0.73;;;0.50;;
705;SDS011;21234;48.690;9.016;2023-04-28T11:36:58;1.07;;;0.37;;
705;SDS011;21234;48.690;9.016;2023-04-28T11:39:25;1.50;;;0.40;;
705;SDS011;21234;48.690;9.016;2023-04-28T11:41:55;0.50;;;0.40;;
705;SDS011;21234;48.690;9.016;2023-04-28T11:44:24;1.07;;;0.67;;
705;SDS011;21234;48.690;9.016;2023-04-28T11:46:52;0.87;;;0.50;;
705;SDS011;21234;48.690;9.016;2023-04-28T11:49:21;4.10;;;0.60;;
705;SDS011;21234;48.690;9.016;2023-04-28T11:51:49;0.50;;;0.40;;
705;SDS011;21234;48.690;9.016;2023-04-28T11:54:22;0.77;;;0.40;;
705;SDS011;21234;48.690;9.016;2023-04-28T11:56:49;0.80;;;0.50;;
705;SDS011;21234;48.690;9.016;2023-04-28T11:59:17;0.70;;;0.40;;
705;SDS011;21234;48.690;9.016;2023-04-28T12:01:47;0.60;;;0.50;;
705;SDS011;21234;48.690;9.016;2023-04-28T12:04:25;0.40;;;0.30;;
705;SDS011;21234;48.690;9.016;2023-04-28T12:06:59;2.10;;;0.67;;
705;SDS011;21234;48.690;9.016;2023-04-28T12:09:28;0.70;;;0.50;;
705;SDS011;21234;48.690;9.016;2023-04-28T12:11:56;1.00;;;0.63;;
705;SDS011;21234;48.690;9.016;2023-04-28T12:14:24;3.03;;;0.73;;
705;SDS011;21234;48.690;9.016;2023-04-28T12:16:51;0.70;;;0.70;;
705;SDS011;21234;48.690;9.016;2023-04-28T12:19:17;1.43;;;0.70;;
705;SDS011;21234;48.690;9.016;2023-04-28T12:24:30;1.90;;;0.60;;
705;SDS011;21234;48.690;9.016;2023-04-28T12:29:45;0.70;;;0.50;;
705;SDS011;21234;48.690;9.016;2023-04-28T12:32:12;0.87;;;0.50;;
705;SDS011;21234;48.690;9.016;2023-04-28T12:34:40;0.90;;;0.60;;
705;SDS011;21234;48.690;9.016;2023-04-28T12:37:07;0.50;;;0.40;;
705;SDS011;21234;48.690;9.016;2023-04-28T12:39:35;1.73;;;0.60;;
705;SDS011;21234;48.690;9.016;2023-04-28T12:42:04;0.97;;;0.60;;
705;SDS011;21234;48.690;9.016;2023-04-28T12:44:32;0.53;;;0.40;;
705;SDS011;21234;48.690;9.016;2023-04-28T12:47:01;1.27;;;0.40;;
705;SDS011;21234;48.690;9.016;2023-04-28T12:49:28;0.67;;;0.67;;
705;SDS011;21234;48.690;9.016;2023-04-28T12:51:55;1.40;;;0.70;;
705;SDS011;21234;48.690;9.016;2023-04-28T12:54:22;1.10;;;0.63;;
705;SDS011;21234;48.690;9.016;2023-04-28T12:56:50;0.60;;;0.60;;
705;SDS011;21234;48.690;9.016;2023-04-28T12:59:18;0.90;;;0.70;;
705;SDS011;21234;48.690;9.016;2023-04-28T13:01:45;1.53;;;0.60;;
705;SDS011;21234;48.690;9.016;2023-04-28T13:04:12;1.67;;;1.23;;
705;SDS011;21234;48.690;9.016;2023-04-28T13:06:39;1.20;;;0.60;;
705;SDS011;21234;48.690;9.016;2023-04-28T13:09:08;0.73;;;0.40;;
705;SDS011;21234;48.690;9.016;2023-04-28T13:11:34;3.13;;;0.80;;
705;SDS011;21234;48.690;9.016;2023-04-28T13:14:03;2.97;;;0.90;;
705;SDS011;21234;48.690;9.016;2023-04-28T13:16:30;0.60;;;0.40;;
705;SDS011;21234;48.690;9.016;2023-04-28T13:18:56;1.48;;;0.75;;
705;SDS011;21234;48.690;9.016;2023-04-28T13:21:23;2.10;;;0.80;;
705;SDS011;21234;48.690;9.016;2023-04-28T13:23:50;0.80;;;0.70;;
705;SDS011;21234;48.690;9.016;2023-04-28T13:26:18;1.40;;;0.50;;
705;SDS011;21234;48.690;9.016;2023-04-28T13:28:45;1.63;;;0.50;;
705;SDS011;21234;48.690;9.016;2023-04-28T13:31:13;2.53;;;0.80;;
705;SDS011;21234;48.690;9.016;2023-04-28T13:33:40;2.67;;;0.87;;
705;SDS011;21234;48.690;9.016;2023-04-28T13:36:06;0.90;;;0.50;;
705;SDS011;21234;48.690;9.016;2023-04-28T13:38:33;0.60;;;0.50;;
705;SDS011;21234;48.690;9.016;2023-04-28T13:41:00;3.43;;;0.57;;
705;SDS011;21234;48.690;9.016;2023-04-28T13:43:27;1.00;;;0.50;;
705;SDS011;21234;48.690;9.016;2023-04-28T13:45:54;0.60;;;0.40;;
705;SDS011;21234;48.690;9.016;2023-04-28T13:48:22;0.70;;;0.60;;
705;SDS011;21234;48.690;9.016;2023-04-28T13:50:49;3.33;;;0.70;;
705;SDS011;21234;48.690;9.016;2023-04-28T13:53:15;0.93;;;0.70;;
705;SDS011;21234;48.690;9.016;2023-04-28T13:55:42;0.60;;;0.53;;
705;SDS011;21234;48.690;9.016;2023-04-28T13:58:09;0.93;;;0.60;;
705;SDS011;21234;48.690;9.016;2023-04-28T14:00:36;0.80;;;0.60;;
705;SDS011;21234;48.690;9.016;2023-04-28T14:03:06;0.97;;;0.40;;
705;SDS011;21234;48.690;9.016;2023-04-28T14:05:35;0.60;;;0.40;;
705;SDS011;21234;48.690;9.016;2023-04-28T14:08:01;3.37;;;1.00;;
705;SDS011;21234;48.690;9.016;2023-04-28T14:10:28;0.70;;;0.60;;
705;SDS011;21234;48.690;9.016;2023-04-28T14:12:55;0.80;;;0.70;;
705;SDS011;21234;48.690;9.016;2023-04-28T14:15:21;0.80;;;0.50;;
705;SDS011;21234;48.690;9.016;2023-04-28T14:17:49;1.70;;;0.60;;
705;SDS011;21234;48.690;9.016;2023-04-28T14:20:16;1.17;;;0.50;;
705;SDS011;21234;48.690;9.016;2023-04-28T14:22:44;0.93;;;0.47;;
705;SDS011;21234;48.690;9.016;2023-04-28T14:25:11;0.70;;;0.50;;
705;SDS011;21234;48.690;9.016;2023-04-28T14:27:38;0.70;;;0.50;;
705;SDS011;21234;48.690;9.016;2023-04-28T14:30:05;0.80;;;0.40;;
705;SDS011;21234;48.690;9.016;2023-04-28T14:32:33;0.60;;;0.40;;
705;SDS011;21234;48.690;9.016;2023-04-28T14:34:59;0.50;;;0.30;;
705;SDS011;21234;48.690;9.016;2023-04-28T14:37:29;0.60;;;0.43;;
705;SDS011;21234;48.690;9.016;2023-04-28T14:39:57;0.60;;;0.40;;
705;SDS011;21234;48.690;9.016;2023-04-28T14:42:26;1.87;;;0.53;;
705;SDS011;21234;48.690;9.016;2023-04-28T14:44:54;1.20;;;0.57;;
705;SDS011;21234;48.690;9.016;2023-04-28T14:47:21;1.40;;;0.47;;
705;SDS011;21234;48.690;9.016;2023-04-28T14:49:48;0.50;;;0.30;;
705;SDS011;21234;48.690;9.016;2023-04-28T14:52:19;0.80;;;0.40;;
705;SDS011;21234;48.690;9.016;2023-04-28T14:54:46;0.70;;;0.60;;
705;SDS011;21234;48.690;9.016;2023-04-28T14:57:14;1.03;;;0.60;;
705;SDS011;21234;48.690;9.016;2023-04-28T14:59:41;0.90;;;0.60;;
705;SDS011;21234;48.690;9.016;2023-04-28T15:02:08;0.97;;;0.60;;
705;SDS011;21234;48.690;9.016;2023-04-28T15:04:34;0.80;;;0.50;;
705;SDS011;21234;48.690;9.016;2023-04-28T15:07:01;0.70;;;0.50;;
705;SDS011;21234;48.690;9.016;2023-04-28T15:09:28;0.60;;;0.40;;
705;SDS011;21234;48.690;9.016;2023-04-28T15:11:55;0.60;;;0.40;;
705;SDS011;21234;48.690;9.016;2023-04-28T15:14:23;1.27;;;0.50;;
705;SDS011;21234;48.690;9.016;2023-04-28T15:16:50;1.53;;;0.67;;
705;SDS011;21234;48.690;9.016;2023-04-28T15:19:17;0.60;;;0.40;;
705;SDS011;21234;48.690;9.016;2023-04-28T15:21:44;0.90;;;0.60;;
705;SDS011;21234;48.690;9.016;2023-04-28T15:24:11;1.80;;;0.70;;
705;SDS011;21234;48.690;9.016;2023-04-28T15:26:39;2.50;;;1.00;;
705;SDS011;21234;48.690;9.016;2023-04-28T15:29:06;0.77;;;0.60;;
705;SDS011;21234;48.690;9.016;2023-04-28T15:31:35;1.37;;;0.50;;
705;SDS011;21234;48.690;9.016;2023-04-28T15:34:04;1.43;;;0.83;;
705;SDS011;21234;48.690;9.016;2023-04-28T15:36:30;1.67;;;1.10;;
705;SDS011;21234;48.690;9.016;2023-04-28T15:39:01;0.70;;;0.60;;